Time;durP1;ratioP1;P1;durP2;ratioP2;P2;SDS_P1;SDS_P2;PMS_P1;PMS_P2;Temp;Humidity;BMP_temperature;BMP_pressure;BME280_temperature;BME280_humidity;BME280_pressure;Samples;Min_cycle;Max_cycle;Signal;HPM_P1;HPM_P2
2023/09/21 00:00:14;;;;;;;6.93;2.75;;;537.90;2406.40;;;;;;5075629;28;20497;-74
2023/09/21 00:02:51;;;;;;;11.50;3.20;;;537.90;2406.40;;;;;;5074248;28;20539;-74
2023/09/21 00:05:21;;;;;;;4.07;2.30;;;538.00;2406.40;;;;;;5075486;28;20520;-75
2023/09/21 00:07:47;;;;;;;6.63;2.67;;;537.90;2406.40;;;;;;5073958;28;20108;-76
2023/09/21 00:10:13;;;;;;;4.28;2.72;;;537.90;2406.40;;;;;;5074061;28;20041;-75
2023/09/21 00:12:40;;;;;;;5.95;3.08;;;537.80;2406.40;;;;;;5075194;28;20078;-75
2023/09/21 00:15:07;;;;;;;12.98;3.00;;;538.50;2406.40;;;;;;5074198;28;20024;-74
2023/09/21 00:17:37;;;;;;;18.27;3.53;;;538.10;2406.40;;;;;;5075386;28;20044;-75
2023/09/21 00:20:23;;;;;;;7.10;2.70;;;538.10;2406.40;;;;;;5075218;28;20065;-75
2023/09/21 00:22:51;;;;;;;4.10;2.67;;;538.20;2406.40;;;;;;5063647;28;20024;-75
2023/09/21 00:25:17;;;;;;;10.48;3.50;;;538.20;2406.40;;;;;;5074996;28;20488;-74
2023/09/21 00:27:44;;;;;;;7.60;3.03;;;538.20;2406.40;;;;;;5075093;28;20028;-75
2023/09/21 00:30:11;;;;;;;6.97;2.67;;;538.30;2406.40;;;;;;5073622;28;20401;-75
2023/09/21 00:32:40;;;;;;;4.88;2.90;;;538.20;2406.40;;;;;;5073763;28;20016;-75
2023/09/21 00:35:09;;;;;;;8.88;3.13;;;538.20;2406.40;;;;;;5074811;28;20025;-75
2023/09/21 00:37:38;;;;;;;5.63;2.65;;;538.20;2406.40;;;;;;5074682;28;20023;-75
2023/09/21 00:40:20;;;;;;;6.38;3.25;;;538.20;2406.40;;;;;;5074404;28;20056;-75
2023/09/21 00:42:46;;;;;;;4.85;2.75;;;538.20;2406.40;;;;;;5074734;28;20024;-75
2023/09/21 00:45:14;;;;;;;5.10;3.45;;;538.20;2406.40;;;;;;5073652;28;20044;-75
2023/09/21 00:47:49;;;;;;;6.78;2.70;;;538.30;2406.40;;;;;;5074876;28;20020;-75
2023/09/21 00:50:21;;;;;;;5.27;3.07;;;538.30;2406.40;;;;;;5061712;28;20032;-75
2023/09/21 00:52:52;;;;;;;7.60;2.72;;;538.50;2406.40;;;;;;5074523;28;20031;-75
2023/09/21 00:55:24;;;;;;;6.32;3.08;;;538.50;2406.40;;;;;;5074162;28;20039;-75
2023/09/21 00:58:02;;;;;;;6.07;2.95;;;538.50;2406.40;;;;;;5074841;28;20018;-75
2023/09/21 01:00:31;;;;;;;10.30;3.75;;;538.50;2406.40;;;;;;5074939;28;20048;-75
2023/09/21 01:03:07;;;;;;;6.45;3.38;;;563.20;2432.00;;;;;;5074794;28;20017;-74
2023/09/21 01:05:36;;;;;;;7.40;2.58;;;538.50;2406.40;;;;;;5075183;28;20031;-75
2023/09/21 01:08:09;;;;;;;4.85;2.30;;;563.20;2432.00;;;;;;5074268;28;20530;-74
2023/09/21 01:10:56;;;;;;;7.50;3.13;;;538.50;2406.40;;;;;;5073905;28;20047;-75
2023/09/21 01:13:23;;;;;;;;;;;563.20;2432.00;;;;;;5074196;28;20032;-76
2023/09/21 01:16:01;;;;;;;4.28;2.38;;;563.20;2432.00;;;;;;5072421;28;20364;-75
2023/09/21 01:18:26;;;;;;;5.65;2.70;;;538.50;2406.40;;;;;;5074242;28;20028;-75
2023/09/21 01:21:04;;;;;;;6.45;2.35;;;538.50;2406.40;;;;;;5073695;28;20025;-75
2023/09/21 01:23:49;;;;;;;15.40;3.22;;;538.50;2406.40;;;;;;5071239;28;20090;-75
2023/09/21 01:26:17;;;;;;;7.17;2.90;;;538.50;2406.40;;;;;;5074302;28;20044;-74
2023/09/21 01:28:46;;;;;;;5.57;2.55;;;538.40;2406.40;;;;;;5074075;28;20044;-75
2023/09/21 01:31:13;;;;;;;5.57;2.50;;;538.40;2406.40;;;;;;5074357;28;20020;-75
2023/09/21 01:33:40;;;;;;;6.25;2.60;;;538.40;2406.40;;;;;;5073971;28;20072;-75
2023/09/21 01:36:12;;;;;;;3.88;2.33;;;538.40;2406.40;;;;;;5074170;28;20025;-74
2023/09/21 01:38:39;;;;;;;5.97;2.28;;;538.30;2406.40;;;;;;5072655;28;20367;-75
2023/09/21 01:41:07;;;;;;;5.43;2.50;;;538.30;2406.40;;;;;;5072674;28;20473;-74
2023/09/21 01:43:33;;;;;;;4.40;2.42;;;538.30;2406.40;;;;;;5072552;28;20029;-75
2023/09/21 01:45:59;;;;;;;5.65;2.80;;;538.20;2406.40;;;;;;5073937;28;20032;-74
2023/09/21 01:48:34;;;;;;;7.00;3.08;;;538.20;2406.40;;;;;;5073635;28;20132;-74
2023/09/21 01:50:59;;;;;;;4.78;2.40;;;538.20;2406.40;;;;;;5071984;28;20036;-74
2023/09/21 01:53:25;;;;;;;5.40;2.75;;;538.20;2406.40;;;;;;5059902;28;20030;-74
2023/09/21 01:55:51;;;;;;;6.68;3.63;;;538.10;2406.40;;;;;;5073458;28;20027;-74
2023/09/21 01:58:19;;;;;;;8.73;3.22;;;537.90;2406.40;;;;;;5073381;28;20031;-75
2023/09/21 02:00:47;;;;;;;6.50;2.58;;;538.00;2406.40;;;;;;5072889;28;20020;-74
2023/09/21 02:03:17;;;;;;;4.18;2.38;;;538.00;2406.40;;;;;;5073371;28;20027;-74
2023/09/21 02:05:43;;;;;;;7.97;2.70;;;538.00;2406.40;;;;;;5072997;28;20095;-74
2023/09/21 02:08:12;;;;;;;7.82;3.10;;;538.00;2406.40;;;;;;5073071;28;20020;-74
2023/09/21 02:10:40;;;;;;;6.35;2.85;;;538.00;2406.40;;;;;;5073042;28;20119;-75
2023/09/21 02:13:06;;;;;;;4.80;2.75;;;537.90;2406.40;;;;;;5073289;28;20023;-74
2023/09/21 02:15:34;;;;;;;7.57;3.08;;;537.80;2406.40;;;;;;5073185;28;20027;-74
2023/09/21 02:18:02;;;;;;;8.52;2.80;;;537.90;2406.40;;;;;;5073163;28;20024;-74
2023/09/21 02:20:32;;;;;;;8.80;3.28;;;538.00;2406.40;;;;;;5071820;28;20033;-74
2023/09/21 02:22:59;;;;;;;7.13;3.17;;;538.00;2406.40;;;;;;5072995;28;20027;-74
2023/09/21 02:25:25;;;;;;;7.78;2.90;;;538.10;2406.40;;;;;;5072961;28;20016;-75
2023/09/21 02:27:51;;;;;;;4.25;2.90;;;538.20;2406.40;;;;;;5073141;28;20449;-74
2023/09/21 02:30:22;;;;;;;4.57;2.90;;;538.30;2406.40;;;;;;5072864;28;20060;-74
2023/09/21 02:32:50;;;;;;;4.63;2.60;;;538.30;2406.40;;;;;;5073052;28;20385;-74
2023/09/21 02:35:19;;;;;;;7.15;2.83;;;538.40;2406.40;;;;;;5073872;28;20563;-74
2023/09/21 02:37:49;;;;;;;8.85;3.85;;;538.40;2406.40;;;;;;5072962;28;20530;-75
2023/09/21 02:40:19;;;;;;;6.07;3.22;;;538.50;2406.40;;;;;;5072209;28;20044;-74
2023/09/21 02:42:49;;;;;;;6.65;3.22;;;538.50;2406.40;;;;;;5071541;28;20029;-74
2023/09/21 02:45:18;;;;;;;5.63;3.28;;;538.50;2406.40;;;;;;5072913;28;20016;-74
2023/09/21 02:47:44;;;;;;;7.10;3.45;;;563.20;2432.00;;;;;;5072806;28;20086;-74
2023/09/21 02:50:25;;;;;;;7.45;2.97;;;563.30;2432.00;;;;;;5072570;28;20097;-74
2023/09/21 02:53:06;;;;;;;8.48;3.85;;;563.40;2432.00;;;;;;5072563;28;20462;-74
2023/09/21 02:55:33;;;;;;;8.38;3.75;;;563.40;2432.00;;;;;;5071490;28;20362;-73
2023/09/21 02:58:04;;;;;;;7.82;3.67;;;563.20;2432.00;;;;;;5072489;28;20012;-74
2023/09/21 03:03:00;;;;;;;9.65;4.65;;;538.40;2406.40;;;;;;5072753;28;20091;-73
2023/09/21 03:05:27;;;;;;;8.27;4.38;;;538.40;2406.40;;;;;;5072973;28;20091;-74
2023/09/21 03:07:56;;;;;;;15.98;5.93;;;538.50;2406.40;;;;;;5072396;28;20096;-74
2023/09/21 03:10:23;;;;;;;14.88;6.80;;;538.50;2406.40;;;;;;5072480;28;20388;-74
2023/09/21 03:12:49;;;;;;;15.55;6.18;;;538.50;2406.40;;;;;;5075420;28;20075;-74
2023/09/21 03:15:18;;;;;;;16.33;6.47;;;538.50;2406.40;;;;;;5076624;28;20415;-74
2023/09/21 03:17:44;;;;;;;16.17;8.13;;;538.50;2406.40;;;;;;5076321;28;20027;-75
2023/09/21 03:20:36;;;;;;;15.50;6.28;;;538.50;2406.40;;;;;;5076518;28;20051;-74
2023/09/21 03:23:09;;;;;;;13.38;6.45;;;538.50;2406.40;;;;;;5076397;28;20020;-74
2023/09/21 03:25:47;;;;;;;17.85;6.20;;;538.50;2406.40;;;;;;5075775;28;20077;-74
2023/09/21 03:28:18;;;;;;;18.05;6.13;;;538.50;2406.40;;;;;;5076310;28;20059;-74
2023/09/21 03:30:56;;;;;;;15.75;5.85;;;538.40;2406.40;;;;;;5075952;28;20032;-74
2023/09/21 03:33:22;;;;;;;18.58;5.63;;;538.50;2406.40;;;;;;5076104;28;20066;-74
2023/09/21 03:35:49;;;;;;;11.50;5.65;;;538.50;2406.40;;;;;;5076061;28;20056;-74
2023/09/21 03:38:18;;;;;;;14.50;6.00;;;538.50;2406.40;;;;;;5075680;28;20020;-74
2023/09/21 03:40:44;;;;;;;12.77;5.63;;;538.40;2406.40;;;;;;5075760;28;20052;-74
2023/09/21 03:43:12;;;;;;;14.13;6.40;;;538.40;2406.40;;;;;;5074545;28;20025;-74
2023/09/21 03:45:39;;;;;;;13.40;5.47;;;538.40;2406.40;;;;;;5075800;28;20021;-75
2023/09/21 03:48:06;;;;;;;11.05;5.50;;;538.30;2406.40;;;;;;5075586;28;20372;-74
2023/09/21 03:50:32;;;;;;;9.60;4.68;;;538.30;2406.40;;;;;;5075449;28;20044;-75
2023/09/21 03:53:04;;;;;;;10.15;4.75;;;538.30;2406.40;;;;;;5075423;28;20066;-75
2023/09/21 03:55:31;;;;;;;12.13;5.25;;;538.30;2406.40;;;;;;5075737;28;20028;-75
2023/09/21 03:57:56;;;;;;;12.05;4.63;;;538.20;2406.40;;;;;;5074194;28;20495;-74
2023/09/21 04:00:30;;;;;;;9.98;4.60;;;538.30;2406.40;;;;;;5075756;28;20025;-74
2023/09/21 04:03:00;;;;;;;9.02;5.22;;;538.30;2406.40;;;;;;5075346;28;20075;-74
2023/09/21 04:05:31;;;;;;;12.40;5.07;;;538.30;2406.40;;;;;;5075479;28;20017;-75
2023/09/21 04:07:57;;;;;;;10.50;5.15;;;538.20;2406.40;;;;;;5075309;28;20539;-75
2023/09/21 04:10:23;;;;;;;11.88;5.78;;;538.20;2406.40;;;;;;5075297;28;20045;-75
2023/09/21 04:12:55;;;;;;;10.48;4.50;;;538.20;2406.40;;;;;;5075403;28;20020;-74
2023/09/21 04:15:26;;;;;;;9.65;4.88;;;538.20;2406.40;;;;;;5073226;28;20028;-75
2023/09/21 04:17:52;;;;;;;13.45;5.20;;;538.10;2406.40;;;;;;5075435;28;20149;-75
2023/09/21 04:20:18;;;;;;;10.30;5.07;;;538.10;2406.40;;;;;;5075139;28;20103;-75
2023/09/21 04:22:46;;;;;;;11.48;5.80;;;538.20;2406.40;;;;;;5074984;28;20029;-74
2023/09/21 04:25:14;;;;;;;12.13;4.80;;;538.30;2406.40;;;;;;5067080;28;20021;-75
2023/09/21 04:27:49;;;;;;;9.90;5.90;;;538.30;2406.40;;;;;;5075370;28;20043;-78
2023/09/21 04:30:17;;;;;;;12.82;6.15;;;538.40;2406.40;;;;;;5074851;28;20033;-76
2023/09/21 04:32:47;;;;;;;14.77;5.75;;;538.40;2406.40;;;;;;5073864;28;20025;-77
2023/09/21 04:35:14;;;;;;;12.02;5.05;;;538.40;2406.40;;;;;;5075045;28;20013;-76
2023/09/21 04:37:42;;;;;;;15.57;6.15;;;538.30;2406.40;;;;;;5075227;28;20020;-76
2023/09/21 04:40:10;;;;;;;10.45;5.07;;;538.20;2406.40;;;;;;5074532;28;20048;-75
2023/09/21 04:42:46;;;;;;;15.85;6.00;;;538.30;2406.40;;;;;;5073799;28;20024;-76
2023/09/21 04:45:14;;;;;;;12.60;5.60;;;538.30;2406.40;;;;;;5074884;28;20105;-75
2023/09/21 04:47:42;;;;;;;18.15;5.82;;;538.30;2406.40;;;;;;5074797;28;20056;-75
2023/09/21 04:50:12;;;;;;;11.38;5.95;;;538.30;2406.40;;;;;;5073286;28;20063;-75
2023/09/21 04:52:38;;;;;;;16.45;5.63;;;538.30;2406.40;;;;;;5074097;28;20114;-75
2023/09/21 04:55:08;;;;;;;12.05;6.00;;;538.30;2406.40;;;;;;5075421;28;20043;-84
2023/09/21 04:57:34;;;;;;;15.23;6.38;;;538.40;2406.40;;;;;;5074648;28;20030;-76
2023/09/21 05:00:04;;;;;;;15.93;5.53;;;538.30;2406.40;;;;;;5074298;28;20595;-77
2023/09/21 05:02:30;;;;;;;10.95;5.63;;;538.40;2406.40;;;;;;5067264;28;20040;-76
2023/09/21 05:04:55;;;;;;;15.75;6.15;;;538.40;2406.40;;;;;;5078418;28;20020;-76
2023/09/21 05:07:21;;;;;;;18.65;9.32;;;538.50;2406.40;;;;;;5077232;28;20032;-76
2023/09/21 05:09:47;;;;;;;20.15;6.32;;;538.50;2406.40;;;;;;5086620;28;20102;-77
2023/09/21 05:12:14;;;;;;;17.15;5.30;;;538.50;2406.40;;;;;;5081979;28;20020;-76
2023/09/21 05:14:39;;;;;;;19.02;5.70;;;538.50;2406.40;;;;;;5072342;28;20032;-75
2023/09/21 05:17:06;;;;;;;11.90;5.05;;;538.50;2406.40;;;;;;5063049;28;20028;-77
2023/09/21 05:19:35;;;;;;;10.32;4.55;;;538.50;2406.40;;;;;;5077141;28;20017;-77
2023/09/21 05:22:02;;;;;;;13.88;5.10;;;538.50;2406.40;;;;;;5081560;28;20028;-77
2023/09/21 05:24:28;;;;;;;16.75;5.50;;;538.50;2406.40;;;;;;5068433;28;20031;-77
2023/09/21 05:26:54;;;;;;;12.93;4.75;;;538.50;2406.40;;;;;;5074511;28;20033;-76
2023/09/21 05:29:20;;;;;;;14.07;4.95;;;538.50;2406.40;;;;;;5063020;28;20033;-76
2023/09/21 05:31:47;;;;;;;11.25;5.50;;;563.20;2432.00;;;;;;5058900;28;20032;-75
2023/09/21 05:34:13;;;;;;;18.27;6.13;;;538.50;2406.40;;;;;;5078193;28;20018;-76
2023/09/21 05:36:39;;;;;;;18.88;5.82;;;538.50;2406.40;;;;;;5077420;28;20024;-75
2023/09/21 05:39:08;;;;;;;11.50;5.40;;;538.50;2406.40;;;;;;5070359;28;20071;-77
2023/09/21 05:41:34;;;;;;;11.27;5.38;;;538.50;2406.40;;;;;;5069993;28;20484;-76
2023/09/21 05:44:00;;;;;;;14.15;6.10;;;538.50;2406.40;;;;;;5072658;28;20127;-77
2023/09/21 05:46:26;;;;;;;19.92;6.55;;;538.50;2406.40;;;;;;5066034;28;20584;-77
2023/09/21 05:48:51;;;;;;;14.40;5.65;;;563.20;2432.00;;;;;;5056251;28;20036;-76
2023/09/21 05:51:17;;;;;;;12.07;4.65;;;563.20;2432.00;;;;;;5072344;28;20107;-76
2023/09/21 05:53:43;;;;;;;14.93;5.35;;;563.30;2432.00;;;;;;5064683;28;20021;-76
2023/09/21 05:56:13;;;;;;;9.30;4.20;;;563.40;2432.00;;;;;;5070284;28;20028;-76
2023/09/21 05:58:39;;;;;;;12.65;5.35;;;563.50;2432.00;;;;;;5073863;28;20016;-76
2023/09/21 06:01:05;;;;;;;14.63;5.22;;;563.60;2432.00;;;;;;5070449;28;20043;-76
2023/09/21 06:03:31;;;;;;;11.40;5.13;;;563.70;2432.00;;;;;;5076856;28;20024;-76
2023/09/21 06:05:57;;;;;;;17.10;5.65;;;563.90;2432.00;;;;;;5071587;28;20021;-76
2023/09/21 06:08:22;;;;;;;9.27;4.65;;;564.00;2432.00;;;;;;5063977;28;20061;-76
2023/09/21 06:10:48;;;;;;;12.65;4.72;;;564.00;2432.00;;;;;;5071722;28;20045;-76
2023/09/21 06:13:14;;;;;;;10.13;4.75;;;564.10;2432.00;;;;;;5080000;28;20028;-76
2023/09/21 06:15:47;;;;;;;18.77;4.95;;;564.10;2432.00;;;;;;5072156;28;21146;-76
2023/09/21 06:18:14;;;;;;;9.38;4.32;;;588.90;2432.00;;;;;;5068723;28;20472;-76
2023/09/21 06:20:43;;;;;;;14.43;5.10;;;589.00;2432.00;;;;;;5063409;28;20024;-76
2023/09/21 06:23:09;;;;;;;12.50;4.63;;;589.00;2432.00;;;;;;5076621;28;20476;-76
2023/09/21 06:25:35;;;;;;;18.85;4.80;;;588.90;2432.00;;;;;;5063091;28;20112;-77
2023/09/21 06:28:02;;;;;;;14.73;4.55;;;588.90;2432.00;;;;;;5075521;28;20477;-77
2023/09/21 06:30:27;;;;;;;8.65;4.35;;;589.00;2432.00;;;;;;5080615;28;20047;-76
2023/09/21 06:32:55;;;;;;;11.15;3.92;;;589.10;2432.00;;;;;;5062568;28;20029;-76
2023/09/21 06:35:24;;;;;;;7.30;3.80;;;589.20;2432.00;;;;;;5068691;28;20024;-75
2023/09/21 06:37:54;;;;;;;12.82;4.10;;;589.50;2432.00;;;;;;5073196;28;20025;-76
2023/09/21 06:40:24;;;;;;;7.93;4.07;;;589.60;2432.00;;;;;;5068527;28;20471;-75
2023/09/21 06:42:50;;;;;;;9.40;3.70;;;589.70;2432.00;;;;;;5059410;28;20112;-76
2023/09/21 06:45:16;;;;;;;6.30;4.13;;;614.50;2432.00;;;;;;5075640;28;20119;-76
2023/09/21 06:47:42;;;;;;;8.57;4.07;;;614.70;2432.00;;;;;;5072051;28;20103;-77
2023/09/21 06:50:11;;;;;;;8.35;4.00;;;614.80;2432.00;;;;;;5070626;28;20028;-76
2023/09/21 06:52:37;;;;;;;13.25;4.20;;;614.90;2432.00;;;;;;5069843;28;20018;-76
2023/09/21 06:55:06;;;;;;;11.85;4.88;;;615.00;2432.00;;;;;;5071582;28;20028;-76
2023/09/21 06:57:34;;;;;;;7.53;4.22;;;615.30;2432.00;;;;;;5068157;28;20017;-75
2023/09/21 07:00:09;;;;;;;9.77;4.85;;;640.20;2432.00;;;;;;5091421;28;20052;-76
2023/09/21 07:02:36;;;;;;;9.07;3.90;;;640.20;2432.00;;;;;;5075245;28;20032;-75
2023/09/21 07:05:02;;;;;;;9.60;5.03;;;640.20;2432.00;;;;;;5077619;28;20024;-75
2023/09/21 07:07:29;;;;;;;6.70;4.40;;;640.20;2432.00;;;;;;5072506;28;20186;-76
2023/09/21 07:09:55;;;;;;;14.23;5.38;;;640.40;2432.00;;;;;;5090417;28;20048;-74
2023/09/21 07:12:23;;;;;;;6.65;4.28;;;640.60;2432.00;;;;;;5083825;28;20545;-76
2023/09/21 07:14:49;;;;;;;11.38;5.32;;;640.90;2432.00;;;;;;5078754;28;20162;-76
2023/09/21 07:17:16;;;;;;;10.80;5.25;;;665.70;2432.00;;;;;;5076048;28;20542;-76
2023/09/21 07:19:42;;;;;;;10.02;4.97;;;665.60;2432.00;;;;;;5072957;28;20021;-76
2023/09/21 07:22:08;;;;;;;9.40;5.15;;;640.70;2432.00;;;;;;5074382;28;20492;-75
2023/09/21 07:24:34;;;;;;;11.43;4.80;;;640.50;2432.00;;;;;;5079097;28;20016;-76
2023/09/21 07:27:00;;;;;;;8.95;5.25;;;640.20;2432.00;;;;;;5079812;28;20093;-76
2023/09/21 07:29:26;;;;;;;12.43;5.90;;;640.20;2432.00;;;;;;5070087;28;20056;-75
2023/09/21 07:31:52;;;;;;;14.35;5.07;;;640.00;2432.00;;;;;;5076800;28;20401;-75
2023/09/21 07:34:19;;;;;;;14.88;5.13;;;640.00;2432.00;;;;;;5079472;28;20069;-76
2023/09/21 07:36:46;;;;;;;10.00;4.45;;;640.00;2432.00;;;;;;5071047;28;20033;-75
2023/09/21 07:39:16;;;;;;;12.80;5.15;;;640.00;2432.00;;;;;;5077511;28;20049;-76
2023/09/21 07:41:46;;;;;;;15.70;5.72;;;640.10;2432.00;;;;;;5076067;28;20020;-75
2023/09/21 07:44:12;;;;;;;9.20;5.38;;;640.10;2432.00;;;;;;5078734;28;20067;-75
2023/09/21 07:46:38;;;;;;;8.77;5.43;;;640.10;2432.00;;;;;;5075093;28;20056;-75
2023/09/21 07:49:07;;;;;;;10.93;5.95;;;640.00;2432.00;;;;;;5076581;28;20032;-75
2023/09/21 07:51:33;;;;;;;11.38;5.40;;;640.00;2432.00;;;;;;5075859;28;20051;-76
2023/09/21 07:54:00;;;;;;;12.00;6.47;;;640.00;2432.00;;;;;;5067302;28;20066;-76
2023/09/21 07:56:30;;;;;;;13.40;6.47;;;615.30;2432.00;;;;;;5074494;28;20028;-75
2023/09/21 07:58:55;;;;;;;16.38;6.43;;;640.10;2432.00;;;;;;5076240;28;20028;-76
2023/09/21 08:01:21;;;;;;;8.50;5.68;;;615.30;2432.00;;;;;;5074515;28;20036;-76
2023/09/21 08:03:50;;;;;;;14.38;6.30;;;640.00;2432.00;;;;;;5079675;28;20103;-76
2023/09/21 08:06:17;;;;;;;18.55;7.00;;;640.20;2432.00;;;;;;5067605;28;20040;-75
2023/09/21 08:08:43;;;;;;;16.58;6.82;;;640.30;2432.00;;;;;;5077224;28;20082;-75
2023/09/21 08:11:08;;;;;;;17.45;6.35;;;640.40;2432.00;;;;;;5068828;28;20066;-74
2023/09/21 08:13:34;;;;;;;12.45;6.25;;;640.60;2432.00;;;;;;5068278;28;20544;-76
2023/09/21 08:16:02;;;;;;;10.55;6.03;;;640.60;2432.00;;;;;;5070959;28;20039;-76
2023/09/21 08:18:27;;;;;;;12.20;6.47;;;640.70;2432.00;;;;;;5066431;28;20020;-76
2023/09/21 08:20:53;;;;;;;11.48;6.32;;;640.80;2432.00;;;;;;5062171;28;20036;-76
2023/09/21 08:23:19;;;;;;;10.25;6.85;;;640.80;2432.00;;;;;;5076934;28;20039;-76
2023/09/21 08:25:45;;;;;;;18.02;7.25;;;640.80;2432.00;;;;;;5092016;28;20024;-76
2023/09/21 08:28:11;;;;;;;16.67;7.30;;;665.60;2432.00;;;;;;5075426;28;20085;-76
2023/09/21 08:30:38;;;;;;;13.10;6.50;;;665.70;2432.00;;;;;;5060481;28;20033;-76
2023/09/21 08:33:07;;;;;;;17.73;7.00;;;665.70;2432.00;;;;;;5069973;28;20024;-75
2023/09/21 08:35:33;;;;;;;10.85;7.10;;;665.90;2432.00;;;;;;5073131;28;20381;-76
2023/09/21 08:37:59;;;;;;;11.50;6.40;;;666.00;2432.00;;;;;;5065574;28;20052;-76
2023/09/21 08:40:26;;;;;;;14.68;7.40;;;666.00;2432.00;;;;;;5075413;28;20045;-76
2023/09/21 08:42:53;;;;;;;10.70;6.75;;;666.20;2432.00;;;;;;5071620;28;20366;-76
2023/09/21 08:45:22;;;;;;;14.20;7.72;;;666.30;2432.00;;;;;;5071218;28;20025;-76
2023/09/21 08:47:49;;;;;;;36.05;9.70;;;666.30;2432.00;;;;;;5072569;28;20469;-76
2023/09/21 08:50:15;;;;;;;16.05;7.38;;;691.20;2432.00;;;;;;5076168;28;20039;-76
2023/09/21 08:52:45;;;;;;;9.73;7.03;;;691.20;2432.00;;;;;;5067463;28;20029;-80
2023/09/21 08:55:14;;;;;;;11.45;7.47;;;691.20;2432.00;;;;;;5073444;28;20115;-78
2023/09/21 08:57:40;;;;;;;16.30;7.80;;;691.30;2432.00;;;;;;5066674;28;20036;-80
2023/09/21 09:00:08;;;;;;;13.65;7.85;;;691.20;2432.00;;;;;;5060539;28;20037;-77
2023/09/21 09:02:35;;;;;;;11.55;7.97;;;691.40;2432.00;;;;;;5075834;28;20127;-78
2023/09/21 09:05:08;;;;;;;12.68;7.68;;;691.60;2432.00;;;;;;5072994;28;20033;-79
2023/09/21 09:07:40;;;;;;;14.10;7.45;;;691.50;2432.00;;;;;;5066101;28;20028;-78
2023/09/21 09:10:11;;;;;;;20.85;8.27;;;691.40;2432.00;;;;;;5082723;28;20529;-80
2023/09/21 09:12:37;;;;;;;15.82;7.30;;;691.60;2432.00;;;;;;5073562;28;20036;-79
2023/09/21 09:15:05;;;;;;;15.43;8.38;;;692.10;2432.00;;;;;;5073127;28;20050;-79
2023/09/21 09:17:32;;;;;;;10.75;7.05;;;742.40;2432.00;;;;;;5068365;28;20025;-76
2023/09/21 09:20:01;;;;;;;14.68;7.72;;;742.90;2304.00;;;;;;5085761;28;20020;-76
2023/09/21 09:22:27;;;;;;;16.33;8.23;;;743.10;2252.80;;;;;;5080976;28;20474;-77
2023/09/21 09:24:55;;;;;;;14.38;7.95;;;743.00;2227.20;;;;;;5067380;28;20031;-78
2023/09/21 09:27:21;;;;;;;13.75;8.00;;;742.70;2252.80;;;;;;5063428;28;20033;-77
2023/09/21 09:29:51;;;;;;;14.75;7.35;;;742.80;2252.80;;;;;;5080580;28;20039;-78
2023/09/21 09:32:22;;;;;;;13.45;7.43;;;743.30;2176.00;;;;;;5067905;28;20389;-78
2023/09/21 09:34:48;;;;;;;15.40;7.70;;;768.40;2150.40;;;;;;5079311;28;20031;-77
2023/09/21 09:37:15;;;;;;;21.80;7.57;;;768.40;2099.20;;;;;;5070899;28;20017;-77
2023/09/21 09:39:45;;;;;;;13.52;7.40;;;743.30;2150.40;;;;;;5070614;28;20071;-78
2023/09/21 09:42:13;;;;;;;14.88;7.45;;;742.90;2176.00;;;;;;5076573;28;20610;-78
2023/09/21 09:44:44;;;;;;;12.30;7.97;;;717.70;2176.00;;;;;;5072011;28;20086;-78
2023/09/21 09:47:14;;;;;;;15.63;7.97;;;717.70;2201.60;;;;;;5070345;28;20024;-78
2023/09/21 09:49:44;;;;;;;11.60;7.75;;;742.60;2227.20;;;;;;5069457;28;20448;-77
2023/09/21 09:52:13;;;;;;;15.75;8.65;;;742.60;2201.60;;;;;;5085731;28;20107;-78
2023/09/21 09:54:40;;;;;;;20.77;8.80;;;742.60;2227.20;;;;;;5068812;28;20024;-83
2023/09/21 09:57:13;;;;;;;12.68;7.53;;;743.00;2176.00;;;;;;5060768;28;20469;-79
2023/09/21 09:59:41;;;;;;;15.85;8.23;;;743.30;2124.80;;;;;;5067887;28;20029;-77
2023/09/21 10:02:11;;;;;;;14.98;8.77;;;793.60;2048.00;;;;;;5074274;28;20419;-77
2023/09/21 10:04:39;;;;;;;14.82;8.10;;;794.20;2022.40;;;;;;5077344;28;20378;-77
2023/09/21 10:07:06;;;;;;;13.98;7.50;;;794.20;1920.00;;;;;;5092339;28;20080;-76
2023/09/21 10:09:32;;;;;;;17.98;7.65;;;794.10;1920.00;;;;;;5087596;28;20107;-78
2023/09/21 10:12:00;;;;;;;16.52;8.57;;;793.70;1945.60;;;;;;5080025;28;20560;-76
2023/09/21 10:14:26;;;;;;;18.90;11.07;;;768.90;1971.20;;;;;;5071502;28;20064;-76
2023/09/21 10:16:56;;;;;;;15.52;7.65;;;768.70;1996.80;;;;;;5074336;28;20059;-77
2023/09/21 10:19:28;;;;;;;14.70;8.57;;;768.50;2022.40;;;;;;5068071;28;20095;-78
2023/09/21 10:21:56;;;;;;;18.35;9.13;;;768.00;2073.60;;;;;;5072484;28;20057;-77
2023/09/21 10:24:26;;;;;;;13.40;8.55;;;743.30;2099.20;;;;;;5072802;28;20435;-77
2023/09/21 10:26:53;;;;;;;14.52;8.27;;;743.00;2099.20;;;;;;5065945;28;20104;-79
2023/09/21 10:29:21;;;;;;;17.30;9.32;;;742.80;2150.40;;;;;;5075568;28;20028;-79
2023/09/21 10:31:54;;;;;;;14.07;8.27;;;742.80;2150.40;;;;;;5070753;28;20032;-78
2023/09/21 10:34:23;;;;;;;17.63;8.57;;;742.60;2150.40;;;;;;5071331;28;20109;-78
2023/09/21 10:36:51;;;;;;;15.90;9.00;;;742.80;2150.40;;;;;;5066801;28;20546;-78
2023/09/21 10:39:26;;;;;;;13.75;8.82;;;742.80;2150.40;;;;;;5073658;28;20056;-78
2023/09/21 10:41:55;;;;;;;11.85;7.97;;;743.00;2150.40;;;;;;5070560;28;20055;-77
2023/09/21 10:44:55;;;;;;;19.40;9.23;;;768.30;2073.60;;;;;;5067257;28;20029;-77
2023/09/21 10:47:28;;;;;;;19.80;9.85;;;793.60;2048.00;;;;;;5073263;28;20536;-77
2023/09/21 10:50:00;;;;;;;18.50;8.30;;;794.20;1971.20;;;;;;5069395;28;20500;-76
2023/09/21 10:52:30;;;;;;;13.70;8.15;;;819.20;1945.60;;;;;;5065324;28;20119;-76
2023/09/21 10:54:57;;;;;;;21.58;8.52;;;819.60;1894.40;;;;;;5063895;28;20046;-76
2023/09/21 10:57:29;;;;;;;15.90;8.60;;;819.80;1817.60;;;;;;5068995;28;20024;-75
2023/09/21 10:59:59;;;;;;;18.90;8.82;;;819.60;1817.60;;;;;;5076295;28;20081;-77
2023/09/21 11:02:29;;;;;;;15.70;7.28;;;819.80;1792.00;;;;;;5070943;28;20020;-76
2023/09/21 11:04:57;;;;;;;14.90;7.63;;;;;;;;;;5072989;28;20032;-77
2023/09/21 11:07:25;;;;;;;13.55;6.78;;;819.80;1740.80;;;;;;5076278;28;20028;-76
2023/09/21 11:09:51;;;;;;;12.88;7.38;;;819.50;1715.20;;;;;;5072710;28;20051;-76
2023/09/21 11:12:17;;;;;;;11.95;6.97;;;819.70;1740.80;;;;;;5066299;28;20474;-77
2023/09/21 11:14:49;;;;;;;12.32;7.00;;;820.10;1740.80;;;;;;5062763;28;20031;-75
2023/09/21 11:17:16;;;;;;;15.10;7.25;;;820.00;1689.60;;;;;;5074353;28;20028;-78
2023/09/21 11:19:43;;;;;;;16.40;6.85;;;844.80;1689.60;;;;;;5067298;28;20028;-76
2023/09/21 11:22:09;;;;;;;19.23;6.78;;;844.80;1689.60;;;;;;5064853;28;20071;-75
2023/09/21 11:24:36;;;;;;;13.80;6.75;;;844.80;1664.00;;;;;;5062052;28;20037;-75
2023/09/21 11:27:14;;;;;;;16.60;7.07;;;844.80;1664.00;;;;;;5060668;28;20102;-75
2023/09/21 11:29:43;;;;;;;15.38;7.07;;;820.10;1638.40;;;;;;5070485;28;20027;-75
2023/09/21 11:32:12;;;;;;;13.73;6.43;;;844.90;1638.40;;;;;;5064061;28;20029;-75
2023/09/21 11:34:39;;;;;;;14.90;5.95;;;844.90;1638.40;;;;;;5067816;28;20065;-74
2023/09/21 11:37:10;;;;;;;14.48;5.55;;;820.10;1536.00;;;;;;5075187;28;20025;-75
2023/09/21 11:39:37;;;;;;;18.20;6.25;;;844.90;1536.00;;;;;;5068618;28;20504;-74
2023/09/21 11:42:03;;;;;;;15.85;6.63;;;845.10;1561.60;;;;;;5078040;28;20021;-74
2023/09/21 11:44:29;;;;;;;15.55;7.10;;;844.90;1587.20;;;;;;5082499;28;20469;-75
2023/09/21 11:46:58;;;;;;;16.55;5.70;;;844.90;1587.20;;;;;;5069375;28;20029;-75
2023/09/21 11:49:41;;;;;;;16.45;6.80;;;844.90;1587.20;;;;;;5069349;28;20465;-75
2023/09/21 11:52:13;;;;;;;16.30;7.30;;;844.90;1612.80;;;;;;5072170;28;20500;-76
2023/09/21 11:54:39;;;;;;;12.15;6.35;;;820.10;1561.60;;;;;;5074767;28;20107;-77
2023/09/21 11:57:06;;;;;;;21.05;6.93;;;844.80;1561.60;;;;;;5069365;28;20473;-75
2023/09/21 11:59:34;;;;;;;9.15;5.72;;;844.90;1536.00;;;;;;5080726;28;20454;-75
2023/09/21 12:02:00;;;;;;;17.83;7.22;;;844.90;1536.00;;;;;;5073232;28;20020;-75
2023/09/21 12:04:31;;;;;;;11.43;5.63;;;844.90;1561.60;;;;;;5077520;28;20027;-75
2023/09/21 12:06:57;;;;;;;16.30;5.60;;;844.90;1536.00;;;;;;5070596;28;20032;-75
2023/09/21 12:09:23;;;;;;;15.60;6.38;;;845.20;1536.00;;;;;;5072890;28;20477;-77
2023/09/21 12:11:53;;;;;;;21.13;8.30;;;845.20;1561.60;;;;;;5069485;28;20039;-76
2023/09/21 12:14:19;;;;;;;14.73;6.03;;;845.70;1484.80;;;;;;5071458;28;20094;-78
2023/09/21 12:16:45;;;;;;;11.00;5.05;;;845.60;1484.80;;;;;;5072410;28;20477;-75
2023/09/21 12:19:10;;;;;;;24.48;5.97;;;845.40;1484.80;;;;;;5071152;28;20100;-75